FWI57Q LFPO-SOCA
Flight info
| Callsign | FWI57Q |
|---|---|
| Flight time | N/A |
| Altitude | 35000 |
| Route | LGL UT190 GODIX UN872 KURIS/N0491F370 UN872 TERPO UN461 AKEMO DCT RIVAK/M085F360 DCT SIVIR DCT PASAS DCT 42N020W/M085F380 35N030W 25N040W/M085F400 20N044W DCT BUTUX/N0485F400 DCT 15N047W DCT MOTSI DCT MEBLI DCT REKIM REKIM1E |
| Aircraft | A359/H-SDE2E3GHIJ3J4J5LM1ORWXY/LB1D1 |
Departure
| Time | N/A |
|---|---|
| Airport | Paris-Orly Airport (LFPO) |
Arrival
| Time | 2026-05-03 20:43 |
|---|---|
| Airport | Cayenne – Félix Eboué Airport (SOCA) |
| Time | Latitude | Longitude | Altitude | Speed | Heading |
|---|---|---|---|---|---|
| 2026-05-03 20:15 | 7.00622 | -51.22289 | 39952 ft | 475 kts | 218° |
| 2026-05-03 20:15 | 6.95089 | -51.25923 | 39955 ft | 475 kts | 218° |
| 2026-05-03 20:16 | 6.89555 | -51.29555 | 39951 ft | 475 kts | 218° |
| 2026-05-03 20:16 | 6.84022 | -51.33187 | 39953 ft | 475 kts | 218° |
| 2026-05-03 20:17 | 6.78484 | -51.36820 | 39950 ft | 476 kts | 218° |
| 2026-05-03 20:17 | 6.72935 | -51.40460 | 39952 ft | 476 kts | 218° |
| 2026-05-03 20:18 | 6.67384 | -51.44100 | 39950 ft | 476 kts | 218° |
| 2026-05-03 20:18 | 6.61835 | -51.47738 | 39944 ft | 476 kts | 218° |
| 2026-05-03 20:19 | 6.56285 | -51.51375 | 39949 ft | 476 kts | 218° |
| 2026-05-03 20:19 | 6.50733 | -51.55013 | 39949 ft | 476 kts | 217° |
| 2026-05-03 20:20 | 6.45177 | -51.58652 | 39949 ft | 477 kts | 217° |
| 2026-05-03 20:20 | 6.39620 | -51.62291 | 39943 ft | 477 kts | 217° |
| 2026-05-03 20:21 | 6.34059 | -51.65932 | 39946 ft | 477 kts | 217° |
| 2026-05-03 20:21 | 6.28495 | -51.69573 | 39946 ft | 477 kts | 217° |
| 2026-05-03 20:22 | 6.22951 | -51.73200 | 39398 ft | 471 kts | 217° |
| 2026-05-03 20:22 | 6.20209 | -51.74993 | 38799 ft | 471 kts | 217° |
| 2026-05-03 20:22 | 6.17460 | -51.76793 | 37988 ft | 473 kts | 216° |
| 2026-05-03 20:22 | 6.14704 | -51.78596 | 37248 ft | 473 kts | 216° |
| 2026-05-03 20:23 | 6.11942 | -51.80402 | 36528 ft | 474 kts | 216° |
| 2026-05-03 20:23 | 6.09214 | -51.82186 | 35785 ft | 475 kts | 216° |
| 2026-05-03 20:23 | 6.06438 | -51.84001 | 34996 ft | 478 kts | 215° |
| 2026-05-03 20:23 | 6.03641 | -51.85831 | 34117 ft | 483 kts | 215° |
| 2026-05-03 20:24 | 6.00809 | -51.87682 | 33128 ft | 488 kts | 214° |
| 2026-05-03 20:24 | 5.97953 | -51.89549 | 32145 ft | 492 kts | 214° |
| 2026-05-03 20:24 | 5.95078 | -51.91427 | 31198 ft | 495 kts | 214° |
| 2026-05-03 20:24 | 5.92194 | -51.93310 | 30508 ft | 493 kts | 214° |
| 2026-05-03 20:25 | 5.89326 | -51.95184 | 29789 ft | 491 kts | 214° |
| 2026-05-03 20:25 | 5.86469 | -51.97049 | 29023 ft | 488 kts | 213° |
| 2026-05-03 20:25 | 5.83639 | -51.98898 | 28323 ft | 484 kts | 213° |
| 2026-05-03 20:25 | 5.80829 | -52.00733 | 27645 ft | 480 kts | 213° |
| 2026-05-03 20:26 | 5.78034 | -52.02558 | 26938 ft | 478 kts | 213° |
| 2026-05-03 20:26 | 5.75254 | -52.04372 | 26244 ft | 475 kts | 213° |
| 2026-05-03 20:26 | 5.72492 | -52.06176 | 25546 ft | 473 kts | 212° |
| 2026-05-03 20:26 | 5.69730 | -52.07977 | 24847 ft | 472 kts | 212° |
| 2026-05-03 20:27 | 5.66979 | -52.09771 | 24146 ft | 471 kts | 212° |
| 2026-05-03 20:27 | 5.64230 | -52.11565 | 23404 ft | 471 kts | 211° |
| 2026-05-03 20:27 | 5.61485 | -52.13358 | 22584 ft | 471 kts | 211° |
| 2026-05-03 20:27 | 5.58746 | -52.15146 | 21824 ft | 468 kts | 211° |
| 2026-05-03 20:28 | 5.56022 | -52.16925 | 21074 ft | 466 kts | 211° |
| 2026-05-03 20:28 | 5.53308 | -52.18695 | 20318 ft | 464 kts | 211° |
| 2026-05-03 20:28 | 5.50607 | -52.20457 | 19561 ft | 463 kts | 211° |
| 2026-05-03 20:28 | 5.47909 | -52.22213 | 18815 ft | 461 kts | 211° |
| 2026-05-03 20:29 | 5.45179 | -52.23809 | 17883 ft | 448 kts | 206° |
| 2026-05-03 20:29 | 5.42445 | -52.25272 | 16614 ft | 442 kts | 206° |
| 2026-05-03 20:29 | 5.40650 | -52.26216 | 16179 ft | 438 kts | 206° |
| 2026-05-03 20:29 | 5.37066 | -52.28105 | 15264 ft | 433 kts | 206° |
| 2026-05-03 20:30 | 5.35301 | -52.29037 | 14778 ft | 432 kts | 206° |
| 2026-05-03 20:30 | 5.32647 | -52.30441 | 14058 ft | 430 kts | 206° |
| 2026-05-03 20:30 | 5.30030 | -52.31827 | 13251 ft | 418 kts | 206° |
| 2026-05-03 20:30 | 5.27514 | -52.33162 | 12468 ft | 400 kts | 206° |
| 2026-05-03 20:31 | 5.25114 | -52.34436 | 11747 ft | 382 kts | 206° |
| 2026-05-03 20:31 | 5.22810 | -52.35657 | 11110 ft | 366 kts | 205° |
| 2026-05-03 20:31 | 5.20645 | -52.36807 | 10922 ft | 337 kts | 205° |
| 2026-05-03 20:31 | 5.18657 | -52.37863 | 10806 ft | 311 kts | 205° |
| 2026-05-03 20:32 | 5.16788 | -52.38854 | 10684 ft | 298 kts | 205° |
| 2026-05-03 20:32 | 5.14982 | -52.39809 | 10563 ft | 290 kts | 205° |
| 2026-05-03 20:32 | 5.13198 | -52.40751 | 10442 ft | 289 kts | 205° |
| 2026-05-03 20:32 | 5.11413 | -52.41694 | 10272 ft | 290 kts | 205° |
| 2026-05-03 20:33 | 5.09634 | -52.42635 | 9942 ft | 289 kts | 205° |
| 2026-05-03 20:33 | 5.07835 | -52.43586 | 9577 ft | 298 kts | 205° |
| 2026-05-03 20:33 | 5.05974 | -52.44569 | 9350 ft | 305 kts | 205° |
| 2026-05-03 20:33 | 5.04108 | -52.45559 | 8963 ft | 300 kts | 205° |
| 2026-05-03 20:34 | 5.02261 | -52.46538 | 8340 ft | 303 kts | 205° |
| 2026-05-03 20:34 | 5.00383 | -52.47531 | 7736 ft | 308 kts | 205° |
| 2026-05-03 20:34 | 4.98475 | -52.48541 | 7177 ft | 311 kts | 205° |
| 2026-05-03 20:34 | 4.96586 | -52.49545 | 6921 ft | 303 kts | 205° |
| 2026-05-03 20:35 | 4.94809 | -52.50551 | 6730 ft | 293 kts | 207° |
| 2026-05-03 20:35 | 4.93081 | -52.51561 | 6506 ft | 284 kts | 207° |
| 2026-05-03 20:35 | 4.91386 | -52.52549 | 6214 ft | 280 kts | 207° |
| 2026-05-03 20:35 | 4.89717 | -52.53518 | 5935 ft | 274 kts | 207° |
| 2026-05-03 20:36 | 4.88082 | -52.54463 | 5673 ft | 269 kts | 207° |
| 2026-05-03 20:36 | 4.86462 | -52.55398 | 5395 ft | 268 kts | 207° |
| 2026-05-03 20:36 | 4.84844 | -52.56328 | 5112 ft | 268 kts | 207° |
| 2026-05-03 20:36 | 4.83222 | -52.57260 | 4831 ft | 268 kts | 207° |
| 2026-05-03 20:37 | 4.81565 | -52.58097 | 4469 ft | 265 kts | 195° |
| 2026-05-03 20:37 | 4.79777 | -52.58160 | 4014 ft | 256 kts | 160° |
| 2026-05-03 20:37 | 4.78151 | -52.57511 | 3661 ft | 246 kts | 150° |
| 2026-05-03 20:37 | 4.76646 | -52.56795 | 3352 ft | 233 kts | 150° |
| 2026-05-03 20:38 | 4.75256 | -52.56032 | 3080 ft | 223 kts | 137° |
| 2026-05-03 20:38 | 4.74497 | -52.54797 | 2881 ft | 202 kts | 97° |
| 2026-05-03 20:38 | 4.74448 | -52.53428 | 2779 ft | 194 kts | 81° |
| 2026-05-03 20:38 | 4.74721 | -52.52116 | 2674 ft | 192 kts | 70° |
| 2026-05-03 20:39 | 4.75225 | -52.50921 | 2542 ft | 180 kts | 65° |
| 2026-05-03 20:39 | 4.75731 | -52.49810 | 2411 ft | 172 kts | 65° |
| 2026-05-03 20:39 | 4.76229 | -52.48723 | 2316 ft | 171 kts | 64° |
| 2026-05-03 20:39 | 4.76713 | -52.47649 | 2128 ft | 166 kts | 64° |
| 2026-05-03 20:40 | 4.77176 | -52.46632 | 1920 ft | 157 kts | 65° |
| 2026-05-03 20:40 | 4.77624 | -52.45659 | 1709 ft | 148 kts | 65° |
| 2026-05-03 20:40 | 4.78053 | -52.44722 | 1525 ft | 148 kts | 65° |
| 2026-05-03 20:40 | 4.78485 | -52.43780 | 1345 ft | 150 kts | 66° |
| 2026-05-03 20:41 | 4.78911 | -52.42851 | 1133 ft | 142 kts | 65° |
| 2026-05-03 20:41 | 4.79303 | -52.41989 | 957 ft | 131 kts | 63° |
| 2026-05-03 20:41 | 4.79692 | -52.41181 | 887 ft | 127 kts | 63° |
| 2026-05-03 20:41 | 4.80062 | -52.40384 | 700 ft | 124 kts | 64° |
| 2026-05-03 20:42 | 4.80427 | -52.39600 | 567 ft | 125 kts | 66° |
| 2026-05-03 20:42 | 4.80793 | -52.38808 | 383 ft | 124 kts | 64° |
| 2026-05-03 20:42 | 4.81134 | -52.38030 | 207 ft | 121 kts | 66° |
| 2026-05-03 20:42 | 4.81485 | -52.37250 | 52 ft | 124 kts | 67° |
| 2026-05-03 20:43 | 4.81804 | -52.36540 | 35 ft | 88 kts | 65° |
| 2026-05-03 20:43 | 4.81983 | -52.36157 | 35 ft | 36 kts | 68° |
| 2026-05-03 20:43 | 4.82046 | -52.36023 | 35 ft | 15 kts | 59° |
| 2026-05-03 20:43 | 4.82120 | -52.35982 | 35 ft | 12 kts | 343° |
| 2026-05-03 20:44 | 4.82148 | -52.36003 | 35 ft | 0 kts | 312° |
| 2026-05-03 20:44 | 4.82148 | -52.36004 | 35 ft | 1 kts | 312° |
| 2026-05-03 20:44 | 4.82187 | -52.36062 | 35 ft | 9 kts | 290° |
| 2026-05-03 20:44 | 4.82185 | -52.36105 | 35 ft | 9 kts | 257° |
| 2026-05-03 20:45 | 4.82158 | -52.36171 | 35 ft | 10 kts | 246° |
| 2026-05-03 20:45 | 4.82128 | -52.36226 | 35 ft | 7 kts | 238° |
| 2026-05-03 20:45 | 4.82105 | -52.36270 | 35 ft | 8 kts | 244° |
| 2026-05-03 20:45 | 4.82085 | -52.36308 | 35 ft | 6 kts | 240° |
| 2026-05-03 20:46 | 4.82090 | -52.36333 | 35 ft | 6 kts | 306° |
| 2026-05-03 20:46 | 4.82128 | -52.36355 | 35 ft | 2 kts | 334° |
| 2026-05-03 20:46 | 4.82143 | -52.36362 | 35 ft | 2 kts | 334° |
| 2026-05-03 20:46 | 4.82150 | -52.36366 | 35 ft | 1 kts | 334° |
| 2026-05-03 20:47 | 4.82152 | -52.36367 | 35 ft | 0 kts | 334° |